createdAt,value
2019-05-05T00:02:49.059Z,14.12
2019-05-05T00:05:37.143Z,14.07
2019-05-05T00:08:05.069Z,14.15
2019-05-05T00:10:50.723Z,14.14
2019-05-05T00:13:25.247Z,14.29
2019-05-05T00:16:12.464Z,14.13
2019-05-05T00:18:40.075Z,14.10
2019-05-05T00:21:07.544Z,13.61
2019-05-05T00:23:35.097Z,13.33
2019-05-05T00:26:04.388Z,13.20
2019-05-05T00:28:32.065Z,13.01
2019-05-05T00:30:59.470Z,12.87
2019-05-05T00:33:26.902Z,12.78
2019-05-05T00:35:54.617Z,12.63
2019-05-05T00:38:22.215Z,12.62
2019-05-05T00:40:49.654Z,12.66
2019-05-05T00:43:17.122Z,12.73
2019-05-05T00:45:46.476Z,12.79
2019-05-05T00:48:24.526Z,12.87
2019-05-05T00:50:52.045Z,12.92
2019-05-05T00:53:19.472Z,12.96
2019-05-05T00:55:46.840Z,13.14
2019-05-05T00:58:14.415Z,13.44
2019-05-05T01:00:50.248Z,13.45
2019-05-05T01:03:19.875Z,13.35
2019-05-05T01:05:58.362Z,13.50
2019-05-05T01:08:27.781Z,13.48
2019-05-05T01:10:55.198Z,13.23
2019-05-05T01:13:24.559Z,13.16
2019-05-05T01:15:54.077Z,13.19
2019-05-05T01:18:21.669Z,13.18
2019-05-05T01:20:49.209Z,13.08
2019-05-05T01:23:16.766Z,13.03
2019-05-05T01:25:45.497Z,13.03
2019-05-05T01:28:14.403Z,12.95
2019-05-05T01:30:44.613Z,12.96
2019-05-05T01:33:18.300Z,12.93
2019-05-05T01:35:45.847Z,12.98
2019-05-05T01:38:26.851Z,12.86
2019-05-05T01:41:14.633Z,12.90
2019-05-05T01:43:41.737Z,12.92
2019-05-05T01:46:09.363Z,12.90
2019-05-05T01:48:36.828Z,12.96
2019-05-05T01:51:05.006Z,12.86
2019-05-05T01:53:32.535Z,13.12
2019-05-05T01:56:00.472Z,13.10
2019-05-05T01:58:28.113Z,13.05
2019-05-05T02:00:55.539Z,13.29
2019-05-05T02:03:24.413Z,13.27
2019-05-05T02:05:52.051Z,13.13
2019-05-05T02:08:19.448Z,12.97
2019-05-05T02:10:46.880Z,13.38
2019-05-05T02:13:16.072Z,13.68
2019-05-05T02:15:44.615Z,13.88
2019-05-05T02:18:12.253Z,13.93
2019-05-05T02:21:05.193Z,13.94
2019-05-05T02:23:35.127Z,13.87
2019-05-05T02:26:04.621Z,14.09
2019-05-05T02:28:41.735Z,14.08
2019-05-05T02:31:18.927Z,14.14
2019-05-05T02:33:46.458Z,14.34
2019-05-05T02:36:15.978Z,14.33
2019-05-05T02:38:46.296Z,14.22
2019-05-05T02:41:15.472Z,14.16
2019-05-05T02:43:44.946Z,14.21
2019-05-05T02:46:35.612Z,14.04
2019-05-05T02:49:05.415Z,14.23
2019-05-05T02:51:35.600Z,14.17
2019-05-05T02:54:05.042Z,14.14
2019-05-05T02:56:43.642Z,14.09
2019-05-05T02:59:16.956Z,13.85
2019-05-05T03:02:00.908Z,13.52
2019-05-05T03:04:28.666Z,13.68
2019-05-05T03:06:57.629Z,13.88
2019-05-05T03:09:27.691Z,13.58
2019-05-05T03:11:58.238Z,13.36
2019-05-05T03:14:27.865Z,13.20
2019-05-05T03:16:56.024Z,13.05
2019-05-05T03:19:24.496Z,12.98
2019-05-05T03:21:54.547Z,12.93
2019-05-05T03:24:23.610Z,12.81
2019-05-05T03:26:53.677Z,12.94
2019-05-05T03:29:21.466Z,13.14
2019-05-05T03:31:49.937Z,13.19
2019-05-05T03:34:19.083Z,13.18
2019-05-05T03:36:47.017Z,13.14
2019-05-05T03:39:25.551Z,13.18
2019-05-05T03:42:10.709Z,13.16
2019-05-05T03:44:45.074Z,12.96
2019-05-05T03:47:13.963Z,12.86
2019-05-05T03:49:41.815Z,12.95
2019-05-05T03:52:09.387Z,12.97
2019-05-05T03:54:36.901Z,12.92
2019-05-05T03:57:07.835Z,12.89
2019-05-05T03:59:38.159Z,12.91
2019-05-05T04:02:15.355Z,13.05
2019-05-05T04:04:46.221Z,12.94
2019-05-05T04:07:14.043Z,12.92
2019-05-05T04:09:43.767Z,13.12
2019-05-05T04:12:13.732Z,13.00
2019-05-05T04:14:44.103Z,13.01
2019-05-05T04:17:40.056Z,13.15
2019-05-05T04:20:30.308Z,13.08
2019-05-05T04:22:58.285Z,13.09
2019-05-05T04:25:26.003Z,13.14
2019-05-05T04:27:53.898Z,13.18
2019-05-05T04:30:23.493Z,13.23
2019-05-05T04:32:50.960Z,13.36
2019-05-05T04:35:18.407Z,13.28
2019-05-05T04:37:45.850Z,13.65
2019-05-05T04:40:14.797Z,13.61
2019-05-05T04:42:44.094Z,13.44
2019-05-05T04:45:12.059Z,13.54
2019-05-05T04:47:43.591Z,13.41
2019-05-05T04:50:39.929Z,13.48
2019-05-05T04:53:13.449Z,13.39
2019-05-05T04:55:40.719Z,13.22
2019-05-05T04:58:08.151Z,13.26
2019-05-05T05:00:35.583Z,13.27
2019-05-05T05:03:34.828Z,13.35
2019-05-05T05:06:08.676Z,13.40
2019-05-05T05:08:36.102Z,13.37
2019-05-05T05:11:03.770Z,13.43
2019-05-05T05:13:31.191Z,13.55
2019-05-05T05:15:58.608Z,13.54
2019-05-05T05:18:26.125Z,13.60
2019-05-05T05:20:55.029Z,13.71
2019-05-05T05:23:24.482Z,13.76
2019-05-05T05:25:51.883Z,13.88
2019-05-05T05:28:19.390Z,13.97
2019-05-05T05:30:46.896Z,14.17
2019-05-05T05:33:15.035Z,14.13
2019-05-05T05:35:44.111Z,14.16
2019-05-05T05:38:13.851Z,14.32
2019-05-05T05:40:55.558Z,14.42
2019-05-05T05:43:30.204Z,14.21
2019-05-05T05:46:15.841Z,13.98
2019-05-05T05:49:01.439Z,13.86
2019-05-05T05:51:28.909Z,13.78
2019-05-05T05:53:56.313Z,13.97
2019-05-05T05:56:24.946Z,13.91
2019-05-05T05:58:54.273Z,13.60
2019-05-05T06:01:23.861Z,13.29
2019-05-05T06:03:51.175Z,13.16
2019-05-05T06:06:18.619Z,13.24
2019-05-05T06:08:46.183Z,13.28
2019-05-05T06:11:13.792Z,13.34
2019-05-05T06:13:41.224Z,13.31
2019-05-05T06:16:08.671Z,13.27
2019-05-05T06:18:36.637Z,13.12
2019-05-05T06:21:04.716Z,13.06
2019-05-05T06:23:34.228Z,12.93
2019-05-05T06:26:06.250Z,13.12
2019-05-05T06:28:30.863Z,13.59
2019-05-05T06:30:58.285Z,13.67
2019-05-05T06:33:25.768Z,13.50
2019-05-05T06:35:53.663Z,13.45
2019-05-05T06:38:21.255Z,13.44
2019-05-05T06:40:57.743Z,13.48
2019-05-05T06:43:35.355Z,13.91
2019-05-05T06:46:04.637Z,14.15
2019-05-05T06:48:34.220Z,13.92
2019-05-05T06:51:03.816Z,13.95
2019-05-05T06:53:30.691Z,14.09
2019-05-05T06:55:58.115Z,14.52
2019-05-05T06:58:25.556Z,14.34
2019-05-05T07:00:54.293Z,14.33
2019-05-05T07:03:24.120Z,14.69
2019-05-05T07:05:53.778Z,14.80
2019-05-05T07:08:20.636Z,14.46
2019-05-05T07:10:48.048Z,14.28
2019-05-05T07:13:15.795Z,14.40
2019-05-05T07:15:43.903Z,14.61
2019-05-05T07:18:11.601Z,14.91
2019-05-05T07:20:39.176Z,15.34
2019-05-05T07:23:06.645Z,15.47
2019-05-05T07:25:42.883Z,15.71
2019-05-05T07:28:04.253Z,15.34
2019-05-05T07:30:33.596Z,15.15
2019-05-05T07:33:01.123Z,15.45
2019-05-05T07:35:55.293Z,15.59
2019-05-05T07:38:13.905Z,15.39
2019-05-05T07:40:41.595Z,15.54
2019-05-05T07:43:09.044Z,15.67
2019-05-05T07:45:36.471Z,16.23
2019-05-05T07:48:04.820Z,16.49
2019-05-05T07:50:35.526Z,16.40
2019-05-05T07:53:12.389Z,16.39
2019-05-05T07:55:31.179Z,16.35
2019-05-05T07:57:58.618Z,16.42
2019-05-05T08:00:26.093Z,16.73
2019-05-05T08:02:54.421Z,17.03
2019-05-05T08:05:22.127Z,17.22
2019-05-05T08:07:49.492Z,17.09
2019-05-05T08:10:16.957Z,17.22
2019-05-05T08:12:44.393Z,16.84
2019-05-05T08:15:14.809Z,16.66
2019-05-05T08:18:14.151Z,16.86
2019-05-05T08:20:44.431Z,17.32
2019-05-05T08:23:31.737Z,17.40
2019-05-05T08:26:01.101Z,17.17
2019-05-05T08:28:34.238Z,17.17
2019-05-05T08:31:21.164Z,17.35
2019-05-05T08:33:48.562Z,17.75
2019-05-05T08:36:16.126Z,17.84
2019-05-05T08:38:44.126Z,17.74
2019-05-05T08:41:13.744Z,17.97
2019-05-05T08:43:41.090Z,17.69
2019-05-05T08:46:08.549Z,17.55
2019-05-05T08:48:35.944Z,17.43
2019-05-05T08:51:04.837Z,17.72
2019-05-05T08:53:44.137Z,18.17
2019-05-05T08:56:03.946Z,18.70
2019-05-05T08:58:31.284Z,19.01
2019-05-05T09:00:58.697Z,18.98
2019-05-05T09:03:26.160Z,18.90
2019-05-05T09:05:54.218Z,18.85
2019-05-05T09:08:24.005Z,18.96
2019-05-05T09:10:53.033Z,19.06
2019-05-05T09:13:20.666Z,19.19
2019-05-05T09:15:48.103Z,18.79
2019-05-05T09:18:15.599Z,18.94
2019-05-05T09:20:44.566Z,19.30
2019-05-05T09:23:14.564Z,19.05
2019-05-05T09:25:49.588Z,19.16
2019-05-05T09:28:44.476Z,19.41
2019-05-05T09:31:11.833Z,19.36
2019-05-05T09:33:39.259Z,19.30
2019-05-05T09:36:06.827Z,19.26
2019-05-05T09:38:34.864Z,18.99
2019-05-05T09:41:03.833Z,19.15
2019-05-05T09:43:31.456Z,18.95
2019-05-05T09:45:58.879Z,18.71
2019-05-05T09:48:26.592Z,18.59
2019-05-05T09:50:54.219Z,18.63
2019-05-05T09:53:23.633Z,18.42
2019-05-05T09:55:51.079Z,18.58
2019-05-05T09:58:18.507Z,19.26
2019-05-05T10:00:46.489Z,19.53
2019-05-05T10:03:14.492Z,19.96
2019-05-05T10:05:42.274Z,20.54
2019-05-05T10:08:09.651Z,20.97
2019-05-05T10:10:37.142Z,21.08
2019-05-05T10:13:04.602Z,20.63
2019-05-05T10:15:32.055Z,20.44
2019-05-05T10:17:59.921Z,20.11
2019-05-05T10:20:27.425Z,20.17
2019-05-05T10:22:54.907Z,20.23
2019-05-05T10:25:38.671Z,20.22
2019-05-05T10:28:06.188Z,19.88
2019-05-05T10:30:33.889Z,19.54
2019-05-05T10:33:03.609Z,19.32
2019-05-05T10:35:30.752Z,19.46
2019-05-05T10:37:58.207Z,19.39
2019-05-05T10:40:30.094Z,19.53
2019-05-05T10:42:57.543Z,19.62
2019-05-05T10:45:25.113Z,19.71
2019-05-05T10:47:52.732Z,19.88
2019-05-05T10:50:20.222Z,20.10
2019-05-05T10:52:47.665Z,20.69
2019-05-05T10:55:16.580Z,20.96
2019-05-05T10:57:43.973Z,21.15
2019-05-05T11:00:15.356Z,21.17
2019-05-05T11:02:41.955Z,21.08
2019-05-05T11:05:09.822Z,21.12
2019-05-05T11:07:37.559Z,21.10
2019-05-05T11:10:06.507Z,20.89
2019-05-05T11:12:33.894Z,20.80
2019-05-05T11:15:03.941Z,20.86
2019-05-05T11:17:31.077Z,20.69
2019-05-05T11:19:58.906Z,20.77
2019-05-05T11:22:26.477Z,20.58
2019-05-05T11:25:00.534Z,20.42
2019-05-05T11:27:24.104Z,20.60
2019-05-05T11:30:20.513Z,20.50
2019-05-05T11:33:06.511Z,20.61
2019-05-05T11:35:53.884Z,20.77
2019-05-05T11:38:21.407Z,20.91
2019-05-05T11:40:48.945Z,21.28
2019-05-05T11:43:16.506Z,21.21
2019-05-05T11:45:44.051Z,21.27
2019-05-05T11:48:11.459Z,21.25
2019-05-05T11:50:38.908Z,21.33
2019-05-05T11:53:06.313Z,21.56
2019-05-05T11:55:33.799Z,21.76
2019-05-05T11:58:01.171Z,21.28
2019-05-05T12:00:28.651Z,21.43
2019-05-05T12:02:56.114Z,21.89
2019-05-05T12:05:24.382Z,21.98
2019-05-05T12:07:54.028Z,21.79
2019-05-05T12:10:39.589Z,21.95
2019-05-05T12:13:08.999Z,21.90
2019-05-05T12:15:36.454Z,21.94
2019-05-05T12:18:04.369Z,22.01
2019-05-05T12:20:34.735Z,22.00
2019-05-05T12:23:04.477Z,22.22
2019-05-05T12:25:49.835Z,22.21
2019-05-05T12:28:30.607Z,22.33
2019-05-05T12:31:00.011Z,22.56
2019-05-05T12:33:27.490Z,22.52
2019-05-05T12:35:54.836Z,22.16
2019-05-05T12:38:24.107Z,22.13
2019-05-05T12:40:53.506Z,21.81
2019-05-05T12:43:21.019Z,21.62
2019-05-05T12:45:53.979Z,22.04
2019-05-05T12:48:29.512Z,22.01
2019-05-05T12:50:57.075Z,21.93
2019-05-05T12:53:24.637Z,22.14
2019-05-05T12:55:53.822Z,22.17
2019-05-05T12:58:21.368Z,22.05
2019-05-05T13:01:17.375Z,22.28
2019-05-05T13:03:44.975Z,22.15
2019-05-05T13:06:14.596Z,22.27
2019-05-05T13:08:42.044Z,22.13
2019-05-05T13:11:09.577Z,21.77
2019-05-05T13:13:37.161Z,21.77
2019-05-05T13:16:04.545Z,21.48
2019-05-05T13:18:33.862Z,20.98
2019-05-05T13:21:24.006Z,20.88
2019-05-05T13:24:04.851Z,20.52
2019-05-05T13:26:53.678Z,20.32
2019-05-05T13:29:21.249Z,20.17
2019-05-05T13:31:48.994Z,20.90
2019-05-05T13:34:16.466Z,21.60
2019-05-05T13:36:44.242Z,21.59
2019-05-05T13:39:14.209Z,21.20
2019-05-05T13:41:41.373Z,20.83
2019-05-05T13:44:14.963Z,20.67
2019-05-05T13:46:44.267Z,20.37
2019-05-05T13:49:26.140Z,20.42
2019-05-05T13:51:54.124Z,20.63
2019-05-05T13:54:21.734Z,20.59
2019-05-05T13:56:49.191Z,20.54
2019-05-05T13:59:16.619Z,20.86
2019-05-05T14:01:44.825Z,20.22
2019-05-05T14:04:12.405Z,19.83
2019-05-05T14:06:39.845Z,19.60
2019-05-05T14:09:07.690Z,19.23
2019-05-05T14:11:35.142Z,18.79
2019-05-05T14:14:02.558Z,18.83
2019-05-05T14:16:29.975Z,18.84
2019-05-05T14:18:57.452Z,18.77
2019-05-05T14:21:24.920Z,18.80
2019-05-05T14:24:03.672Z,19.06
2019-05-05T14:26:32.367Z,19.03
2019-05-05T14:29:00.230Z,19.24
2019-05-05T14:31:33.802Z,19.21
2019-05-05T14:34:04.444Z,19.36
2019-05-05T14:36:46.722Z,19.61
2019-05-05T14:39:15.286Z,19.45
2019-05-05T14:41:44.571Z,19.21
2019-05-05T14:44:13.454Z,19.10
2019-05-05T14:46:40.933Z,19.05
2019-05-05T14:49:08.510Z,18.96
2019-05-05T14:51:35.967Z,18.83
2019-05-05T14:54:04.622Z,18.93
2019-05-05T14:56:36.459Z,18.98
2019-05-05T14:59:03.579Z,19.06
2019-05-05T15:01:30.846Z,19.48
2019-05-05T15:03:58.325Z,19.31
2019-05-05T15:06:39.820Z,19.09
2019-05-05T15:09:15.254Z,18.97
2019-05-05T15:12:03.755Z,18.79
2019-05-05T15:14:31.301Z,18.67
2019-05-05T15:16:58.694Z,18.61
2019-05-05T15:19:26.169Z,18.64
2019-05-05T15:21:53.718Z,18.80
2019-05-05T15:24:21.213Z,18.67
2019-05-05T15:26:52.040Z,18.56
2019-05-05T15:29:17.994Z,18.51
2019-05-05T15:31:45.350Z,18.49
2019-05-05T15:34:12.782Z,18.44
2019-05-05T15:36:40.229Z,18.48
2019-05-05T15:39:08.386Z,18.46
2019-05-05T15:41:35.874Z,18.40
2019-05-05T15:44:03.773Z,18.29
2019-05-05T15:46:33.579Z,18.06
2019-05-05T15:49:00.793Z,18.02
2019-05-05T15:51:28.362Z,18.04
2019-05-05T15:53:55.798Z,17.99
2019-05-05T15:56:24.462Z,18.20
2019-05-05T15:58:51.909Z,18.10
2019-05-05T16:01:19.373Z,18.21
2019-05-05T16:03:46.812Z,18.38
2019-05-05T16:06:14.359Z,18.38
2019-05-05T16:08:41.861Z,18.45
2019-05-05T16:11:09.325Z,18.43
2019-05-05T16:13:37.027Z,18.50
2019-05-05T16:16:34.148Z,18.60
2019-05-05T16:19:29.882Z,18.40
2019-05-05T16:22:14.546Z,18.29
2019-05-05T16:24:44.644Z,18.39
2019-05-05T16:27:21.711Z,18.56
2019-05-05T16:29:41.654Z,18.67
2019-05-05T16:32:19.544Z,18.78
2019-05-05T16:34:38.694Z,18.74
2019-05-05T16:37:06.135Z,18.81
2019-05-05T16:39:33.699Z,18.93
2019-05-05T16:42:01.335Z,19.16
2019-05-05T16:44:28.751Z,19.19
2019-05-05T16:46:57.425Z,19.26
2019-05-05T16:49:25.066Z,19.23
2019-05-05T16:52:14.621Z,19.14
2019-05-05T16:55:05.561Z,18.96
2019-05-05T16:57:34.763Z,18.81
2019-05-05T17:00:02.656Z,18.60
2019-05-05T17:02:30.003Z,18.48
2019-05-05T17:04:57.465Z,18.35
2019-05-05T17:07:24.900Z,18.24
2019-05-05T17:09:52.333Z,18.13
2019-05-05T17:12:19.696Z,18.09
2019-05-05T17:15:18.924Z,17.99
2019-05-05T17:17:54.034Z,17.91
2019-05-05T17:20:24.587Z,17.92
2019-05-05T17:22:56.051Z,17.96
2019-05-05T17:25:24.604Z,17.90
2019-05-05T17:27:54.416Z,17.88
2019-05-05T17:30:24.516Z,17.89
2019-05-05T17:32:52.094Z,17.81
2019-05-05T17:35:19.534Z,17.78
2019-05-05T17:37:46.965Z,17.68
2019-05-05T17:40:30.339Z,17.68
2019-05-05T17:43:24.436Z,17.70
2019-05-05T17:45:58.263Z,17.62
2019-05-05T17:48:35.582Z,17.61
2019-05-05T17:51:23.483Z,17.65
2019-05-05T17:54:26.285Z,17.57
2019-05-05T17:56:55.058Z,17.60
2019-05-05T17:59:23.682Z,17.10
2019-05-05T18:01:51.243Z,16.61
2019-05-05T18:04:18.614Z,16.24
2019-05-05T18:06:54.801Z,16.03
2019-05-05T18:09:43.795Z,15.90
2019-05-05T18:12:45.522Z,15.94
2019-05-05T18:15:34.133Z,16.03
2019-05-05T18:18:01.725Z,16.08
2019-05-05T18:20:29.212Z,16.16
2019-05-05T18:22:57.243Z,16.10
2019-05-05T18:25:24.652Z,15.96
2019-05-05T18:27:52.099Z,15.79
2019-05-05T18:30:19.550Z,15.67
2019-05-05T18:32:46.942Z,15.54
2019-05-05T18:35:14.360Z,15.51
2019-05-05T18:37:43.512Z,15.74
2019-05-05T18:40:11.245Z,16.03
2019-05-05T18:42:38.661Z,15.81
2019-05-05T18:45:09.772Z,15.53
2019-05-05T18:47:37.205Z,15.27
2019-05-05T18:50:05.113Z,15.14
2019-05-05T18:52:34.512Z,15.12
2019-05-05T18:55:02.009Z,14.98
2019-05-05T18:57:29.430Z,14.92
2019-05-05T18:59:56.911Z,14.87
2019-05-05T19:02:49.900Z,14.92
2019-05-05T19:05:36.959Z,14.98
2019-05-05T19:08:10.116Z,15.07
2019-05-05T19:10:37.566Z,15.11
2019-05-05T19:13:04.988Z,15.02
2019-05-05T19:15:32.520Z,15.04
2019-05-05T19:17:59.969Z,15.07
2019-05-05T19:20:44.444Z,15.08
2019-05-05T19:23:12.116Z,15.04
2019-05-05T19:25:39.582Z,15.07
2019-05-05T19:28:06.986Z,15.04
2019-05-05T19:30:36.166Z,15.02
2019-05-05T19:33:04.551Z,15.30
2019-05-05T19:35:43.577Z,15.52
2019-05-05T19:38:01.494Z,15.31
2019-05-05T19:40:28.932Z,15.27
2019-05-05T19:42:56.384Z,15.26
2019-05-05T19:45:24.099Z,15.45
2019-05-05T19:47:53.184Z,15.50
2019-05-05T19:50:28.185Z,15.71
2019-05-05T19:52:55.599Z,15.63
2019-05-05T19:55:23.014Z,15.79
2019-05-05T19:57:50.556Z,15.86
2019-05-05T20:00:18.291Z,15.88
2019-05-05T20:02:45.714Z,15.74
2019-05-05T20:05:13.986Z,15.77
2019-05-05T20:07:43.744Z,15.69
2019-05-05T20:10:10.798Z,15.72
2019-05-05T20:12:38.250Z,15.81
2019-05-05T20:15:08.182Z,15.76
2019-05-05T20:17:36.745Z,15.64
2019-05-05T20:20:05.545Z,15.52
2019-05-05T20:22:34.766Z,15.46
2019-05-05T20:25:04.374Z,15.38
2019-05-05T20:27:34.219Z,15.37
2019-05-05T20:30:01.428Z,15.32
2019-05-05T20:32:48.355Z,15.19
2019-05-05T20:35:33.784Z,15.23
2019-05-05T20:38:08.490Z,15.21
2019-05-05T20:40:41.257Z,15.23
2019-05-05T20:43:08.741Z,15.16
2019-05-05T20:45:36.234Z,15.28
2019-05-05T20:48:04.467Z,15.44
2019-05-05T20:50:34.192Z,15.44
2019-05-05T20:53:01.654Z,15.25
2019-05-05T20:55:29.044Z,15.18
2019-05-05T20:57:56.604Z,15.14
2019-05-05T21:00:24.196Z,15.05
2019-05-05T21:02:53.663Z,14.93
2019-05-05T21:05:20.986Z,14.94
2019-05-05T21:07:48.384Z,14.93
2019-05-05T21:10:16.014Z,14.91
2019-05-05T21:12:45.569Z,14.88
2019-05-05T21:15:13.213Z,14.84
2019-05-05T21:17:40.877Z,14.84
2019-05-05T21:20:08.586Z,14.86
2019-05-05T21:22:45.410Z,14.89
2019-05-05T21:25:25.083Z,14.93
2019-05-05T21:27:52.627Z,14.96
2019-05-05T21:30:20.061Z,15.03
2019-05-05T21:32:47.478Z,15.02
2019-05-05T21:35:14.902Z,14.98
2019-05-05T21:37:42.315Z,14.95
2019-05-05T21:40:10.373Z,14.97
2019-05-05T21:42:37.809Z,14.98
2019-05-05T21:45:05.227Z,14.96
2019-05-05T21:47:34.516Z,14.86
2019-05-05T21:50:03.731Z,14.78
2019-05-05T21:52:40.312Z,14.73
2019-05-05T21:55:36.661Z,14.66
2019-05-05T21:58:08.937Z,14.61
2019-05-05T22:01:04.189Z,14.59
2019-05-05T22:03:34.839Z,14.67
2019-05-05T22:06:03.749Z,14.75
2019-05-05T22:08:33.486Z,14.81
2019-05-05T22:11:00.749Z,14.83
2019-05-05T22:13:28.195Z,14.90
2019-05-05T22:15:55.648Z,14.95
2019-05-05T22:18:23.021Z,14.97
2019-05-05T22:21:04.287Z,14.98
2019-05-05T22:23:34.038Z,14.97
2019-05-05T22:26:01.259Z,15.01
2019-05-05T22:28:28.644Z,14.97
2019-05-05T22:30:56.110Z,15.20
2019-05-05T22:33:24.679Z,15.20
2019-05-05T22:35:52.352Z,15.04
2019-05-05T22:38:19.775Z,15.06
2019-05-05T22:40:47.314Z,15.20
2019-05-05T22:43:14.768Z,15.10
2019-05-05T22:45:44.865Z,14.96
2019-05-05T22:48:14.219Z,14.91
2019-05-05T22:50:43.516Z,14.85
2019-05-05T22:53:10.582Z,14.82
2019-05-05T22:55:38.126Z,14.78
2019-05-05T22:58:05.559Z,14.74
2019-05-05T23:00:34.805Z,14.76
2019-05-05T23:03:09.565Z,14.64
2019-05-05T23:05:44.945Z,14.84
2019-05-05T23:08:13.611Z,15.10
2019-05-05T23:10:41.190Z,15.34
2019-05-05T23:13:08.566Z,15.29
2019-05-05T23:15:38.524Z,15.01
2019-05-05T23:18:31.498Z,15.05
2019-05-05T23:21:31.262Z,15.10
2019-05-05T23:24:30.170Z,15.13
2019-05-05T23:26:57.609Z,15.35
2019-05-05T23:29:26.648Z,15.54
2019-05-05T23:31:54.335Z,15.72
2019-05-05T23:34:21.765Z,15.79
2019-05-05T23:36:49.211Z,15.68
2019-05-05T23:39:16.656Z,15.78
2019-05-05T23:41:44.095Z,15.79
2019-05-05T23:44:11.516Z,15.65
2019-05-05T23:46:38.954Z,15.40
2019-05-05T23:49:06.335Z,15.27
2019-05-05T23:51:34.782Z,15.51
2019-05-05T23:54:04.226Z,15.68
2019-05-05T23:56:31.784Z,15.50
2019-05-05T23:58:59.345Z,15.52
